Time;durP1;ratioP1;P1;durP2;ratioP2;P2;SDS_P1;SDS_P2;PMS_P1;PMS_P2;Temp;Humidity;BMP_temperature;BMP_pressure;BME280_temperature;BME280_humidity;BME280_pressure;Samples;Min_cycle;Max_cycle;Signal;HPM_P1;HPM_P2
2023/04/09 00:01:20;;;;;;;5.57;5.00;;;15.30;55.40;;;;;;5074925;28;20479;-63
2023/04/09 00:03:47;;;;;;;6.27;5.57;;;15.30;55.40;;;;;;5073034;28;20839;-63
2023/04/09 00:06:16;;;;;;;5.80;5.03;;;15.30;55.30;;;;;;5073441;28;20475;-63
2023/04/09 00:08:42;;;;;;;6.77;5.77;;;15.30;55.50;;;;;;5071877;28;20460;-62
2023/04/09 00:11:09;;;;;;;5.93;5.33;;;15.30;55.50;;;;;;5068466;28;20549;-63
2023/04/09 00:13:36;;;;;;;6.00;5.40;;;15.30;55.50;;;;;;5061434;28;20474;-63
2023/04/09 00:16:03;;;;;;;6.57;5.57;;;15.30;55.40;;;;;;5066129;28;20448;-64
2023/04/09 00:18:30;;;;;;;6.93;6.23;;;15.20;55.30;;;;;;5061651;28;20448;-64
2023/04/09 00:20:57;;;;;;;6.20;5.43;;;15.20;55.30;;;;;;5073845;28;20453;-63
2023/04/09 00:23:25;;;;;;;6.17;5.57;;;15.20;55.30;;;;;;5073580;28;20455;-63
2023/04/09 00:25:52;;;;;;;6.07;5.47;;;15.20;55.50;;;;;;5072548;28;20789;-63
2023/04/09 00:28:19;;;;;;;6.90;5.77;;;15.20;55.60;;;;;;5057172;28;20831;-63
2023/04/09 00:30:46;;;;;;;7.77;5.70;;;15.20;55.60;;;;;;5072284;28;20937;-63
2023/04/09 00:33:13;;;;;;;6.97;5.57;;;15.10;55.70;;;;;;5063710;28;20498;-63
2023/04/09 00:35:40;;;;;;;6.10;5.50;;;15.10;55.90;;;;;;5069477;28;20475;-65
2023/04/09 00:38:06;;;;;;;6.17;5.40;;;15.10;55.80;;;;;;5070896;28;20450;-66
2023/04/09 00:40:35;;;;;;;6.53;5.60;;;15.10;55.90;;;;;;5068144;28;20479;-65
2023/04/09 00:43:02;;;;;;;6.40;5.40;;;15.10;55.90;;;;;;5067727;28;20479;-66
2023/04/09 00:45:28;;;;;;;5.90;5.20;;;15.10;56.00;;;;;;5063933;28;20447;-64
2023/04/09 00:47:55;;;;;;;6.50;5.77;;;15.10;55.80;;;;;;5072132;28;20449;-65
2023/04/09 00:50:22;;;;;;;5.80;5.20;;;15.00;56.10;;;;;;5072660;28;20454;-65
2023/04/09 00:52:49;;;;;;;6.40;5.70;;;15.00;56.10;;;;;;5072456;28;20454;-66
2023/04/09 00:55:18;;;;;;;6.83;5.50;;;15.00;56.20;;;;;;5071769;28;20447;-65
2023/04/09 00:57:46;;;;;;;6.73;6.03;;;15.00;56.40;;;;;;5080054;28;20969;-66
2023/04/09 01:00:14;;;;;;;7.10;5.80;;;15.00;56.60;;;;;;5072133;28;20443;-65
2023/04/09 01:02:41;;;;;;;6.27;5.57;;;14.90;56.40;;;;;;5071708;28;21026;-66
2023/04/09 01:05:09;;;;;;;7.67;6.37;;;14.90;56.40;;;;;;5071644;28;20451;-66
2023/04/09 01:07:50;;;;;;;6.93;5.90;;;14.90;56.10;;;;;;5072070;28;20979;-64
2023/04/09 01:10:24;;;;;;;6.57;5.73;;;14.90;56.20;;;;;;5068627;28;20462;-66
2023/04/09 01:13:04;;;;;;;6.30;5.70;;;14.90;55.90;;;;;;5071875;28;20482;-65
2023/04/09 01:15:37;;;;;;;7.27;5.70;;;14.90;55.80;;;;;;5070158;28;21104;-65
2023/04/09 01:18:09;;;;;;;6.50;5.90;;;14.90;56.00;;;;;;5070714;28;20451;-65
2023/04/09 01:20:40;;;;;;;7.00;5.97;;;14.90;56.10;;;;;;5071893;28;20868;-66
2023/04/09 01:23:16;;;;;;;7.30;6.13;;;14.90;56.10;;;;;;5065948;28;20571;-66
2023/04/09 01:26:02;;;;;;;6.93;6.23;;;14.80;55.80;;;;;;5061173;28;20483;-65
2023/04/09 01:28:35;;;;;;;6.63;5.60;;;14.90;56.00;;;;;;5070604;28;20454;-65
2023/04/09 01:31:10;;;;;;;7.47;6.03;;;14.90;55.90;;;;;;5063917;28;20557;-65
2023/04/09 01:33:38;;;;;;;6.03;5.13;;;14.90;56.00;;;;;;5063737;28;20455;-65
2023/04/09 01:36:07;;;;;;;8.23;6.43;;;14.90;55.90;;;;;;5059142;28;21011;-65
2023/04/09 01:38:36;;;;;;;7.30;6.37;;;14.90;55.90;;;;;;5052860;28;20503;-65
2023/04/09 01:41:04;;;;;;;7.03;5.97;;;14.90;56.10;;;;;;5075963;28;20450;-66
2023/04/09 01:43:34;;;;;;;7.37;6.40;;;14.80;55.90;;;;;;5061792;28;20840;-65
2023/04/09 01:46:02;;;;;;;7.87;6.23;;;14.80;55.90;;;;;;5051596;28;20463;-65
2023/04/09 01:48:30;;;;;;;6.60;5.90;;;14.80;56.70;;;;;;5064432;28;20474;-68
2023/04/09 01:50:57;;;;;;;7.60;6.57;;;14.80;56.10;;;;;;5082698;28;20478;-66
2023/04/09 01:53:27;;;;;;;7.90;6.20;;;14.70;55.90;;;;;;5054654;28;20561;-65
2023/04/09 01:55:54;;;;;;;6.33;5.70;;;14.70;55.90;;;;;;5051180;28;20456;-66
2023/04/09 01:58:22;;;;;;;8.30;6.30;;;14.70;55.90;;;;;;5055271;28;20455;-66
2023/04/09 02:00:52;;;;;;;7.17;5.90;;;14.70;55.80;;;;;;5080803;28;20887;-66
2023/04/09 02:03:24;;;;;;;7.43;6.40;;;14.70;55.70;;;;;;5076684;28;20578;-64
2023/04/09 02:05:57;;;;;;;7.47;6.07;;;14.70;55.90;;;;;;5071066;28;20453;-65
2023/04/09 02:08:27;;;;;;;7.40;6.60;;;14.70;56.30;;;;;;5071254;28;20546;-65
2023/04/09 02:10:58;;;;;;;7.47;6.40;;;14.70;56.10;;;;;;5070971;28;20443;-66
2023/04/09 02:13:26;;;;;;;7.53;6.80;;;14.70;56.20;;;;;;5070116;28;20487;-66
2023/04/09 02:15:56;;;;;;;8.20;7.30;;;14.60;56.10;;;;;;5061067;28;20467;-67
2023/04/09 02:18:24;;;;;;;7.67;6.73;;;14.60;56.10;;;;;;5058052;28;20547;-66
2023/04/09 02:20:52;;;;;;;8.10;6.67;;;14.60;55.90;;;;;;5062090;28;20482;-66
2023/04/09 02:23:19;;;;;;;7.90;6.70;;;14.60;55.90;;;;;;5061901;28;20534;-66
2023/04/09 02:25:46;;;;;;;7.07;6.30;;;14.60;55.90;;;;;;5058794;28;20450;-65
2023/04/09 02:28:13;;;;;;;7.80;6.73;;;14.60;55.80;;;;;;5066535;28;20567;-66
2023/04/09 02:30:40;;;;;;;9.37;7.37;;;14.60;55.70;;;;;;5068000;28;20551;-66
2023/04/09 02:33:08;;;;;;;7.60;6.47;;;14.60;55.60;;;;;;5070093;28;20475;-66
2023/04/09 02:35:35;;;;;;;7.37;6.67;;;14.60;55.80;;;;;;5061773;28;20448;-65
2023/04/09 02:38:02;;;;;;;8.13;6.80;;;14.60;55.70;;;;;;5056135;28;20448;-65
2023/04/09 02:40:30;;;;;;;8.63;6.87;;;14.60;55.80;;;;;;5067736;28;21158;-65
2023/04/09 02:45:32;;;;;;;8.13;6.80;;;14.60;55.90;;;;;;5231657;22;20556;-72
2023/04/09 02:47:59;;;;;;;7.93;6.80;;;14.50;55.90;;;;;;5042921;28;20465;-72
2023/04/09 02:50:27;;;;;;;9.17;7.80;;;14.50;55.80;;;;;;5033835;28;20544;-72
2023/04/09 02:52:54;;;;;;;9.30;7.10;;;14.50;55.90;;;;;;5035231;28;20465;-72
2023/04/09 02:55:22;;;;;;;8.43;6.83;;;14.50;56.00;;;;;;5047736;28;20487;-72
2023/04/09 02:57:48;;;;;;;7.93;6.83;;;14.50;55.90;;;;;;5052206;28;20450;-72
2023/04/09 03:00:16;;;;;;;8.03;6.80;;;14.50;56.20;;;;;;4989347;28;20980;-72
2023/04/09 03:02:42;;;;;;;8.10;7.30;;;14.40;56.20;;;;;;5048548;28;20502;-72
2023/04/09 03:05:10;;;;;;;9.00;7.37;;;14.40;56.40;;;;;;5036948;28;20535;-72
2023/04/09 03:07:38;;;;;;;8.00;7.10;;;14.40;56.60;;;;;;5048357;28;20547;-71
2023/04/09 03:10:05;;;;;;;7.73;6.93;;;14.30;56.80;;;;;;5042989;28;20979;-72
2023/04/09 03:12:32;;;;;;;9.93;7.27;;;14.30;56.80;;;;;;5047012;28;20453;-72
2023/04/09 03:14:59;;;;;;;6.77;6.07;;;14.30;56.60;;;;;;5033228;28;20557;-72
2023/04/09 03:17:26;;;;;;;8.00;6.57;;;14.30;56.90;;;;;;5017305;28;20808;-72
2023/04/09 03:19:53;;;;;;;9.03;7.00;;;14.30;57.00;;;;;;5051026;28;20456;-72
2023/04/09 03:22:20;;;;;;;8.90;7.20;;;14.30;57.00;;;;;;5051377;28;20484;-71
2023/04/09 03:24:48;;;;;;;8.23;6.70;;;14.20;56.90;;;;;;5039210;28;20469;-72
2023/04/09 03:27:15;;;;;;;9.87;6.93;;;14.20;56.90;;;;;;5046726;28;20466;-72
2023/04/09 03:29:42;;;;;;;6.63;5.97;;;14.20;57.20;;;;;;5046884;28;20801;-71
2023/04/09 03:32:09;;;;;;;9.90;7.43;;;14.20;57.30;;;;;;5047949;28;20797;-72
2023/04/09 03:34:36;;;;;;;8.17;7.30;;;14.10;57.20;;;;;;5039084;28;20460;-72
2023/04/09 03:37:03;;;;;;;9.50;7.77;;;14.10;57.30;;;;;;5051481;28;20478;-71
2023/04/09 03:39:30;;;;;;;9.73;8.03;;;14.10;57.30;;;;;;5052724;28;20539;-71
2023/04/09 03:41:58;;;;;;;9.83;7.23;;;14.10;57.40;;;;;;5051713;28;20451;-71
2023/04/09 03:44:25;;;;;;;9.83;7.47;;;14.10;57.40;;;;;;5037626;28;20873;-71
2023/04/09 03:46:52;;;;;;;8.53;7.30;;;14.10;57.30;;;;;;5041897;28;20470;-71
2023/04/09 03:49:19;;;;;;;9.30;7.17;;;14.10;57.30;;;;;;5049983;28;20474;-70
2023/04/09 03:51:46;;;;;;;8.63;6.97;;;14.10;57.30;;;;;;5052422;28;20444;-72
2023/04/09 03:54:13;;;;;;;8.13;7.33;;;14.10;57.50;;;;;;5052085;28;20472;-72
2023/04/09 03:56:40;;;;;;;8.93;7.07;;;14.00;57.50;;;;;;5044044;28;20786;-72
2023/04/09 03:59:08;;;;;;;8.20;7.03;;;14.00;57.60;;;;;;5045647;28;21063;-72
2023/04/09 04:01:35;;;;;;;8.90;7.23;;;14.00;57.80;;;;;;5034190;28;20537;-72
2023/04/09 04:04:11;;;;;;;7.87;6.93;;;13.90;57.90;;;;;;5043218;28;20484;-70
2023/04/09 04:06:38;;;;;;;9.13;7.53;;;13.90;58.00;;;;;;5040419;28;21198;-72
2023/04/09 04:09:05;;;;;;;8.00;6.60;;;13.90;57.80;;;;;;5032990;28;21070;-72
2023/04/09 04:11:31;;;;;;;8.67;7.40;;;13.90;57.90;;;;;;5043601;28;20828;-72
2023/04/09 04:13:58;;;;;;;9.43;6.87;;;13.90;57.90;;;;;;5041662;28;20546;-71
2023/04/09 04:16:27;;;;;;;9.20;7.10;;;13.90;57.80;;;;;;5046591;28;20459;-72
2023/04/09 04:18:53;;;;;;;8.57;6.97;;;13.90;57.80;;;;;;5047645;28;20540;-72
2023/04/09 04:21:20;;;;;;;9.27;7.30;;;13.90;57.60;;;;;;5033795;28;20455;-72
2023/04/09 04:23:47;;;;;;;9.47;8.03;;;13.90;57.50;;;;;;5047530;28;20530;-72
2023/04/09 04:26:14;;;;;;;9.47;8.03;;;13.80;57.60;;;;;;5051489;28;20800;-72
2023/04/09 04:28:41;;;;;;;8.53;7.53;;;13.90;57.60;;;;;;5052089;28;20539;-73
2023/04/09 04:31:09;;;;;;;9.10;7.90;;;13.80;57.60;;;;;;5034009;28;20449;-73
2023/04/09 04:33:39;;;;;;;9.50;7.40;;;13.80;57.70;;;;;;5031801;28;20461;-73
2023/04/09 04:36:07;;;;;;;10.03;7.83;;;13.80;57.60;;;;;;5044084;28;20634;-74
2023/04/09 04:38:34;;;;;;;9.37;7.73;;;13.70;57.50;;;;;;5032205;28;20536;-73
2023/04/09 04:41:01;;;;;;;9.63;7.77;;;13.70;57.60;;;;;;5048396;28;20518;-73
2023/04/09 04:43:28;;;;;;;9.97;8.03;;;13.70;57.70;;;;;;5039863;28;20485;-73
2023/04/09 04:45:55;;;;;;;11.27;7.70;;;13.70;57.90;;;;;;5031729;28;20571;-73
2023/04/09 04:48:22;;;;;;;9.97;7.67;;;13.60;57.80;;;;;;5044816;28;20500;-73
2023/04/09 04:50:57;;;;;;;8.50;7.57;;;13.60;58.00;;;;;;5048979;28;20543;-73
2023/04/09 04:53:24;;;;;;;9.17;7.80;;;13.50;58.00;;;;;;5004644;28;20492;-72
2023/04/09 04:55:51;;;;;;;9.83;7.80;;;13.50;58.00;;;;;;5050631;28;21282;-73
2023/04/09 04:58:18;;;;;;;13.20;8.50;;;13.40;58.00;;;;;;4997910;28;21022;-73
2023/04/09 05:00:46;;;;;;;9.47;7.70;;;13.40;58.10;;;;;;5041590;28;20464;-73
2023/04/09 05:03:14;;;;;;;10.37;8.37;;;13.30;58.20;;;;;;5040946;28;20568;-73
2023/04/09 05:05:41;;;;;;;11.37;8.50;;;13.30;58.20;;;;;;5041774;28;20441;-73
2023/04/09 05:08:10;;;;;;;8.97;7.70;;;13.30;58.40;;;;;;5047895;28;20460;-74
2023/04/09 05:10:37;;;;;;;11.23;8.47;;;13.20;58.40;;;;;;5050626;28;20540;-73
2023/04/09 05:13:03;;;;;;;10.40;8.00;;;13.20;58.40;;;;;;5040314;28;20534;-73
2023/04/09 05:15:30;;;;;;;11.80;8.93;;;13.20;58.60;;;;;;5043837;28;20487;-73
2023/04/09 05:17:58;;;;;;;10.10;8.20;;;13.10;58.50;;;;;;5046666;28;20480;-73
2023/04/09 05:20:27;;;;;;;9.87;8.53;;;13.10;58.60;;;;;;5046412;28;20559;-73
2023/04/09 05:22:55;;;;;;;14.50;11.63;;;13.10;58.70;;;;;;5048199;28;20492;-73
2023/04/09 05:25:24;;;;;;;23.30;17.63;;;13.00;58.70;;;;;;5045431;28;20971;-73
2023/04/09 05:27:51;;;;;;;21.50;16.37;;;13.00;58.90;;;;;;5050722;28;20563;-74
2023/04/09 05:30:18;;;;;;;20.33;15.73;;;13.00;59.00;;;;;;5041137;28;20549;-73
2023/04/09 05:32:45;;;;;;;16.23;13.63;;;13.00;59.10;;;;;;5030668;28;20547;-74
2023/04/09 05:35:12;;;;;;;15.30;11.67;;;12.90;59.10;;;;;;5049680;28;20614;-72
2023/04/09 05:37:39;;;;;;;23.13;15.20;;;12.90;59.20;;;;;;5050181;28;20936;-73
2023/04/09 05:40:07;;;;;;;36.93;20.03;;;12.90;59.20;;;;;;5042419;28;20543;-74
2023/04/09 05:42:35;;;;;;;26.63;16.17;;;12.90;59.20;;;;;;5040000;28;20477;-73
2023/04/09 05:45:02;;;;;;;18.00;13.00;;;12.90;59.30;;;;;;5039940;28;20475;-74
2023/04/09 05:47:29;;;;;;;15.80;12.83;;;12.80;59.70;;;;;;5050702;28;21027;-73
2023/04/09 05:49:56;;;;;;;14.93;11.23;;;12.90;59.70;;;;;;5044559;28;20468;-73
2023/04/09 05:52:22;;;;;;;20.23;12.93;;;12.90;59.80;;;;;;5011338;28;20477;-73
2023/04/09 05:54:49;;;;;;;31.70;17.50;;;12.80;59.50;;;;;;5038368;28;20473;-76
2023/04/09 05:57:16;;;;;;;69.80;36.50;;;12.80;59.60;;;;;;5054009;28;20936;-73
2023/04/09 05:59:44;;;;;;;41.87;24.10;;;12.80;59.80;;;;;;5042662;28;20481;-74
2023/04/09 06:02:11;;;;;;;22.97;14.87;;;12.80;59.80;;;;;;5047880;28;20580;-73
2023/04/09 06:04:38;;;;;;;20.40;13.33;;;12.80;59.50;;;;;;5033353;28;20488;-74
2023/04/09 06:07:05;;;;;;;15.67;10.33;;;12.90;59.70;;;;;;5031948;28;20457;-74
2023/04/09 06:09:32;;;;;;;11.80;9.13;;;12.90;59.70;;;;;;5029298;28;20500;-73
2023/04/09 06:11:59;;;;;;;12.50;9.70;;;12.90;59.70;;;;;;5039600;28;20476;-74
2023/04/09 06:14:26;;;;;;;11.70;9.37;;;13.00;59.60;;;;;;5048633;28;20995;-74
2023/04/09 06:16:54;;;;;;;10.83;8.93;;;13.00;59.80;;;;;;5044606;28;20509;-74
2023/04/09 06:19:22;;;;;;;12.43;9.57;;;13.00;59.40;;;;;;5022333;28;20532;-74
2023/04/09 06:21:49;;;;;;;10.73;9.20;;;13.10;59.30;;;;;;5034995;28;20531;-73
2023/04/09 06:24:16;;;;;;;10.97;8.97;;;13.20;59.30;;;;;;5044397;28;20530;-74
2023/04/09 06:26:45;;;;;;;11.00;9.17;;;13.30;59.40;;;;;;5041063;28;21074;-74
2023/04/09 06:29:12;;;;;;;11.00;9.00;;;13.30;59.50;;;;;;5050194;28;20531;-74
2023/04/09 06:31:39;;;;;;;10.77;8.37;;;13.40;59.10;;;;;;5044656;28;20465;-74
2023/04/09 06:34:07;;;;;;;11.67;9.17;;;13.50;59.10;;;;;;5038408;28;20527;-74
2023/04/09 06:36:36;;;;;;;10.73;8.53;;;13.50;59.00;;;;;;5046106;28;20508;-73
2023/04/09 06:39:03;;;;;;;10.53;8.53;;;13.60;59.20;;;;;;5046814;28;20491;-73
2023/04/09 06:41:31;;;;;;;11.07;9.23;;;13.70;59.20;;;;;;5050300;28;20455;-74
2023/04/09 06:43:58;;;;;;;11.97;9.20;;;13.70;59.00;;;;;;5036327;28;20555;-74
2023/04/09 06:46:25;;;;;;;12.03;9.33;;;13.70;58.70;;;;;;5048403;28;20534;-74
2023/04/09 06:48:53;;;;;;;11.00;9.33;;;13.80;58.80;;;;;;5042425;28;20492;-73
2023/04/09 06:51:21;;;;;;;11.87;9.40;;;13.80;59.30;;;;;;5004648;28;20444;-73
2023/04/09 06:53:48;;;;;;;13.17;9.30;;;13.90;58.90;;;;;;5049048;28;20535;-74
2023/04/09 06:56:16;;;;;;;10.50;9.10;;;13.90;59.10;;;;;;5041599;28;20904;-74
2023/04/09 06:58:43;;;;;;;9.97;8.63;;;13.90;59.10;;;;;;5033605;28;20540;-74
2023/04/09 07:01:12;;;;;;;10.30;8.20;;;14.00;58.90;;;;;;5040327;28;20505;-72
2023/04/09 07:03:40;;;;;;;10.97;8.47;;;14.00;58.80;;;;;;5039736;28;20567;-73
2023/04/09 07:06:09;;;;;;;11.43;8.90;;;14.10;58.70;;;;;;5043371;28;20461;-74
2023/04/09 07:08:37;;;;;;;12.67;9.67;;;14.10;58.90;;;;;;5050448;28;20480;-74
2023/04/09 07:11:04;;;;;;;11.33;9.10;;;14.20;58.90;;;;;;5030788;28;20544;-74
2023/04/09 07:13:31;;;;;;;11.40;9.20;;;14.20;58.70;;;;;;5040534;28;20501;-74
2023/04/09 07:15:58;;;;;;;9.97;8.97;;;14.20;58.60;;;;;;5049482;28;20456;-73
2023/04/09 07:18:25;;;;;;;12.77;9.87;;;14.40;58.70;;;;;;5044793;28;20566;-73
2023/04/09 07:20:52;;;;;;;11.10;9.00;;;14.40;58.70;;;;;;5046847;28;20468;-72
2023/04/09 07:23:21;;;;;;;11.00;9.60;;;14.40;58.50;;;;;;5043351;28;20480;-73
2023/04/09 07:25:49;;;;;;;12.40;9.83;;;14.50;58.10;;;;;;5042231;28;20457;-74
2023/04/09 07:28:16;;;;;;;10.00;8.77;;;14.60;58.10;;;;;;5033686;28;20987;-74
2023/04/09 07:30:45;;;;;;;10.87;9.17;;;14.60;58.20;;;;;;5047799;28;20488;-74
2023/04/09 07:33:12;;;;;;;11.70;9.10;;;14.70;58.20;;;;;;5047474;28;20457;-73
2023/04/09 07:35:38;;;;;;;10.57;9.07;;;14.70;58.20;;;;;;5049469;28;20985;-74
2023/04/09 07:38:06;;;;;;;11.10;9.57;;;14.70;58.30;;;;;;5040134;28;20485;-73
2023/04/09 07:40:35;;;;;;;12.13;9.83;;;14.80;58.40;;;;;;5049117;28;20462;-74
2023/04/09 07:43:03;;;;;;;12.00;10.00;;;14.90;58.00;;;;;;5044875;28;20468;-73
2023/04/09 07:45:30;;;;;;;13.73;10.53;;;14.90;57.90;;;;;;5051795;28;20584;-74
2023/04/09 07:47:57;;;;;;;12.40;10.63;;;14.90;57.70;;;;;;5046045;28;20498;-73
2023/04/09 07:50:24;;;;;;;13.50;10.47;;;14.90;57.50;;;;;;5053435;28;20531;-74
2023/04/09 07:52:51;;;;;;;10.53;9.43;;;15.00;57.60;;;;;;5052863;28;20452;-73
2023/04/09 07:55:19;;;;;;;11.47;10.07;;;15.00;57.60;;;;;;5052815;28;20574;-74
2023/04/09 07:57:47;;;;;;;10.70;9.57;;;15.10;57.70;;;;;;5005438;28;20481;-73
2023/04/09 08:00:16;;;;;;;10.80;9.70;;;15.10;57.90;;;;;;4966935;28;20454;-74
2023/04/09 08:02:43;;;;;;;10.50;9.23;;;15.20;57.50;;;;;;5047252;28;20531;-75
2023/04/09 08:05:10;;;;;;;10.50;9.13;;;15.30;57.50;;;;;;5052801;28;21070;-75
2023/04/09 08:07:37;;;;;;;11.37;10.10;;;15.40;57.40;;;;;;5052131;28;20468;-73
2023/04/09 08:10:06;;;;;;;9.97;8.87;;;15.40;57.10;;;;;;5052545;28;20559;-73
2023/04/09 08:12:32;;;;;;;9.97;8.87;;;15.40;57.50;;;;;;5046422;28;20457;-76
2023/04/09 08:15:02;;;;;;;10.97;9.17;;;15.50;57.30;;;;;;5044975;28;20545;-75
2023/04/09 08:17:30;;;;;;;11.20;9.97;;;15.70;57.10;;;;;;5039886;28;20482;-74
2023/04/09 08:19:57;;;;;;;11.73;9.67;;;15.80;57.10;;;;;;5037060;28;20460;-72
2023/04/09 08:22:25;;;;;;;11.00;9.60;;;15.80;56.60;;;;;;5048911;28;20459;-75
2023/04/09 08:24:53;;;;;;;11.10;9.63;;;15.90;56.70;;;;;;5052536;28;20488;-74
2023/04/09 08:27:20;;;;;;;10.77;9.33;;;16.00;56.70;;;;;;5048085;28;20514;-75
2023/04/09 08:29:47;;;;;;;11.33;9.37;;;16.00;56.30;;;;;;5058890;28;20469;-76
2023/04/09 08:32:14;;;;;;;11.07;9.73;;;16.10;56.40;;;;;;5053615;28;20532;-76
2023/04/09 08:34:42;;;;;;;11.20;10.00;;;16.20;57.00;;;;;;5049172;28;20449;-76
2023/04/09 08:37:09;;;;;;;11.03;9.30;;;16.30;56.40;;;;;;5053722;28;20536;-75
2023/04/09 08:39:36;;;;;;;9.63;8.70;;;16.40;55.90;;;;;;5037600;28;20501;-75
2023/04/09 08:42:06;;;;;;;12.27;9.60;;;16.40;56.20;;;;;;5034458;28;20540;-74
2023/04/09 08:44:33;;;;;;;11.97;9.10;;;16.60;56.20;;;;;;5053066;28;20573;-77
2023/04/09 08:47:01;;;;;;;9.43;8.50;;;16.60;55.60;;;;;;5053136;28;20515;-75
2023/04/09 08:49:28;;;;;;;9.23;8.27;;;16.70;56.20;;;;;;5045470;28;20464;-74
2023/04/09 08:51:57;;;;;;;9.97;8.97;;;16.90;56.10;;;;;;5048774;28;20879;-75
2023/04/09 08:54:25;;;;;;;9.40;8.47;;;17.00;55.50;;;;;;5050430;28;20551;-73
2023/04/09 08:56:52;;;;;;;9.03;8.13;;;17.20;55.50;;;;;;5047982;28;20468;-74
2023/04/09 08:59:19;;;;;;;8.30;7.50;;;17.20;55.00;;;;;;5016967;28;20452;-75
2023/04/09 09:01:51;;;;;;;9.57;7.60;;;17.40;52.90;;;;;;5049316;28;20498;-76
2023/04/09 09:04:18;;;;;;;7.90;7.10;;;17.40;52.60;;;;;;5049191;28;21051;-72
2023/04/09 09:06:45;;;;;;;8.60;7.70;;;17.50;52.40;;;;;;5046953;28;20488;-73
2023/04/09 09:09:16;;;;;;;7.53;6.83;;;17.60;51.60;;;;;;5044484;28;20488;-73
2023/04/09 09:11:44;;;;;;;7.53;6.67;;;17.60;52.10;;;;;;5046019;28;20441;-72
2023/04/09 09:14:12;;;;;;;8.03;7.23;;;17.70;52.00;;;;;;5045623;28;20491;-72
2023/04/09 09:16:42;;;;;;;7.40;6.70;;;17.80;51.60;;;;;;5047146;28;20825;-74
2023/04/09 09:19:10;;;;;;;6.73;6.10;;;17.90;50.80;;;;;;5043006;28;20486;-74
2023/04/09 09:21:37;;;;;;;7.30;6.30;;;18.00;50.40;;;;;;5043629;28;20468;-74
2023/04/09 09:24:17;;;;;;;6.20;5.60;;;18.00;49.50;;;;;;5045704;28;20492;-73
2023/04/09 09:26:44;;;;;;;6.00;5.40;;;18.00;48.20;;;;;;5039386;28;20550;-74
2023/04/09 09:29:11;;;;;;;5.43;4.93;;;18.00;48.80;;;;;;5043328;28;20468;-75
2023/04/09 09:31:48;;;;;;;6.53;5.87;;;18.00;48.30;;;;;;5040624;28;20542;-74
2023/04/09 09:34:16;;;;;;;5.80;4.90;;;18.00;47.10;;;;;;5046632;28;20491;-73
2023/04/09 09:36:44;;;;;;;6.47;5.87;;;18.00;47.90;;;;;;5045377;28;20456;-75
2023/04/09 09:39:12;;;;;;;6.37;5.73;;;17.90;48.40;;;;;;5053675;28;20448;-73
2023/04/09 09:41:41;;;;;;;7.33;6.57;;;17.90;48.10;;;;;;5030674;28;20442;-71
2023/04/09 09:44:10;;;;;;;6.03;5.43;;;17.90;48.40;;;;;;5036756;28;20481;-70
2023/04/09 09:46:39;;;;;;;7.37;6.67;;;18.00;49.00;;;;;;5041693;28;20480;-72
2023/04/09 09:49:07;;;;;;;6.73;6.00;;;18.00;48.60;;;;;;5041446;28;20566;-70
2023/04/09 09:51:36;;;;;;;7.27;6.57;;;18.10;49.30;;;;;;5044958;28;20523;-71
2023/04/09 09:54:04;;;;;;;7.30;6.60;;;18.10;49.40;;;;;;5049234;28;20535;-70
2023/04/09 09:56:35;;;;;;;7.47;6.77;;;18.20;49.10;;;;;;5026876;28;20445;-70
2023/04/09 09:59:16;;;;;;;6.90;5.97;;;18.10;49.30;;;;;;5037592;28;20946;-69
2023/04/09 10:01:46;;;;;;;7.00;6.40;;;18.20;49.10;;;;;;5036324;28;20903;-71
2023/04/09 10:04:15;;;;;;;7.07;6.37;;;18.40;49.30;;;;;;5030747;28;20300;-70
2023/04/09 10:06:44;;;;;;;7.03;6.33;;;18.50;49.90;;;;;;5046153;28;20444;-70
2023/04/09 10:09:12;;;;;;;7.23;6.07;;;18.70;49.40;;;;;;5049095;28;20469;-72
2023/04/09 10:11:42;;;;;;;7.60;6.87;;;18.90;49.10;;;;;;5027459;28;20457;-69
2023/04/09 10:14:11;;;;;;;7.47;6.70;;;18.90;48.60;;;;;;5050391;28;20197;-69
2023/04/09 10:16:39;;;;;;;7.90;6.47;;;18.90;48.30;;;;;;5049097;28;20860;-70
2023/04/09 10:19:11;;;;;;;7.27;6.17;;;18.90;48.70;;;;;;5044790;28;20896;-70
2023/04/09 10:21:43;;;;;;;7.20;6.50;;;19.00;48.30;;;;;;5046125;28;20206;-71
2023/04/09 10:24:12;;;;;;;6.53;5.93;;;18.90;47.60;;;;;;5050123;28;20472;-71
2023/04/09 10:26:41;;;;;;;6.40;5.80;;;19.00;47.70;;;;;;5049236;28;20451;-71
2023/04/09 10:29:13;;;;;;;6.13;5.53;;;19.10;47.50;;;;;;5047427;28;20202;-71
2023/04/09 10:31:48;;;;;;;5.83;5.20;;;19.10;47.40;;;;;;5038411;28;20244;-72
2023/04/09 10:34:16;;;;;;;5.97;5.37;;;19.10;47.30;;;;;;5045193;28;20300;-71
2023/04/09 10:36:44;;;;;;;5.33;4.83;;;19.20;47.10;;;;;;5035160;28;20206;-72
2023/04/09 10:39:14;;;;;;;5.27;4.77;;;19.20;46.00;;;;;;5049324;28;20473;-71
2023/04/09 10:41:42;;;;;;;5.97;5.47;;;19.20;45.20;;;;;;5045849;28;20221;-71
2023/04/09 10:44:22;;;;;;;5.80;5.20;;;19.20;44.80;;;;;;5047148;28;20304;-71
2023/04/09 10:46:49;;;;;;;5.37;4.87;;;19.20;44.50;;;;;;5047570;28;20250;-71
2023/04/09 10:49:19;;;;;;;5.00;4.50;;;19.10;44.80;;;;;;5045846;28;20507;-71
2023/04/09 10:51:52;;;;;;;5.07;4.57;;;19.00;44.80;;;;;;5045354;28;20220;-71
2023/04/09 10:54:38;;;;;;;7.47;6.47;;;19.10;44.60;;;;;;5040012;28;20672;-72
2023/04/09 10:57:15;;;;;;;5.10;4.70;;;19.10;44.40;;;;;;5043949;28;20630;-71
2023/04/09 10:59:45;;;;;;;6.90;5.93;;;19.00;44.50;;;;;;5049469;28;20455;-71
2023/04/09 11:02:45;;;;;;;6.17;5.57;;;19.10;44.10;;;;;;5040048;28;20481;-72
2023/04/09 11:05:19;;;;;;;5.07;4.57;;;19.10;43.10;;;;;;5043979;28;20214;-71
2023/04/09 11:07:53;;;;;;;5.30;4.80;;;19.10;43.30;;;;;;5036633;28;20307;-70
2023/04/09 11:10:20;;;;;;;5.47;4.97;;;19.10;43.10;;;;;;5045577;28;20292;-70
2023/04/09 11:12:47;;;;;;;4.67;4.27;;;19.10;43.20;;;;;;5049673;28;20261;-72
2023/04/09 11:15:19;;;;;;;4.73;4.30;;;19.10;42.30;;;;;;5052299;28;20289;-71
2023/04/09 11:17:47;;;;;;;4.67;4.27;;;19.10;42.70;;;;;;5051356;28;20248;-71
2023/04/09 11:20:14;;;;;;;4.73;4.23;;;19.20;43.10;;;;;;5043462;28;20224;-71
2023/04/09 11:22:41;;;;;;;4.50;4.10;;;19.20;43.40;;;;;;5045280;28;20301;-72
2023/04/09 11:25:09;;;;;;;4.57;4.17;;;19.30;43.20;;;;;;5047406;28;20274;-71
2023/04/09 11:27:38;;;;;;;4.40;4.00;;;19.40;42.50;;;;;;5037806;28;20459;-71
2023/04/09 11:30:06;;;;;;;3.83;3.53;;;19.40;41.50;;;;;;5047502;28;20206;-71
2023/04/09 11:32:34;;;;;;;3.70;3.40;;;19.40;40.50;;;;;;5042099;28;20207;-71
2023/04/09 11:35:02;;;;;;;3.60;3.30;;;19.40;40.10;;;;;;5037578;28;20575;-71
2023/04/09 11:37:29;;;;;;;3.97;3.47;;;19.40;41.30;;;;;;5049529;28;20237;-70
2023/04/09 11:39:57;;;;;;;3.77;3.47;;;19.50;40.70;;;;;;5045326;28;20244;-71
2023/04/09 11:42:24;;;;;;;3.60;3.30;;;19.50;40.40;;;;;;5045945;28;20555;-71
2023/04/09 11:44:53;;;;;;;3.57;3.27;;;19.50;40.00;;;;;;5046192;28;20495;-71
2023/04/09 11:47:20;;;;;;;5.40;3.50;;;19.50;40.10;;;;;;5038147;28;20701;-72
2023/04/09 11:49:49;;;;;;;3.70;3.40;;;19.50;40.10;;;;;;5050724;28;20464;-71
2023/04/09 11:52:16;;;;;;;3.90;3.00;;;19.40;39.20;;;;;;5052412;28;20301;-71
2023/04/09 11:54:48;;;;;;;3.67;3.37;;;19.40;39.90;;;;;;5051986;28;20218;-72
2023/04/09 11:57:14;;;;;;;4.30;3.90;;;19.40;40.10;;;;;;5052412;28;20205;-72
2023/04/09 11:59:42;;;;;;;4.07;3.77;;;19.40;40.80;;;;;;5050978;28;20230;-71
2023/04/09 12:02:09;;;;;;;4.00;3.60;;;19.50;40.50;;;;;;5049545;28;20275;-72
2023/04/09 12:04:50;;;;;;;3.70;3.40;;;19.60;39.70;;;;;;5036236;28;20681;-72
2023/04/09 12:07:17;;;;;;;3.07;2.80;;;19.60;37.50;;;;;;5046205;28;20202;-71
2023/04/09 12:09:48;;;;;;;3.37;3.07;;;19.60;38.00;;;;;;5042336;28;20630;-70
2023/04/09 12:12:19;;;;;;;3.07;2.77;;;19.60;36.50;;;;;;5043572;28;20203;-72
2023/04/09 12:14:47;;;;;;;3.50;3.20;;;19.70;36.50;;;;;;5047619;28;20198;-73
2023/04/09 12:17:14;;;;;;;3.20;3.00;;;19.60;36.40;;;;;;5051656;28;20665;-72
2023/04/09 12:19:41;;;;;;;3.67;3.37;;;19.60;36.80;;;;;;5040239;28;20638;-72
2023/04/09 12:22:09;;;;;;;3.40;3.10;;;19.50;36.50;;;;;;5041221;28;20218;-72
2023/04/09 12:24:36;;;;;;;4.13;3.73;;;19.50;37.30;;;;;;5050504;28;20293;-72
2023/04/09 12:27:03;;;;;;;3.37;3.07;;;19.50;36.90;;;;;;5050549;28;20233;-71
2023/04/09 12:29:32;;;;;;;5.33;4.03;;;19.60;37.30;;;;;;5032169;28;20611;-72
2023/04/09 12:31:59;;;;;;;4.40;4.00;;;19.60;37.60;;;;;;5042116;28;20206;-71
2023/04/09 12:34:50;;;;;;;3.67;3.37;;;19.60;36.50;;;;;;5051312;28;20538;-73
2023/04/09 12:37:19;;;;;;;3.40;3.10;;;19.50;35.20;;;;;;5043135;28;20685;-71
2023/04/09 12:39:46;;;;;;;3.37;2.93;;;19.50;37.10;;;;;;5036756;28;20205;-70
2023/04/09 12:42:15;;;;;;;3.37;3.07;;;19.80;37.50;;;;;;5041291;28;20201;-69
2023/04/09 12:44:42;;;;;;;3.23;2.93;;;20.10;37.60;;;;;;5036157;28;20638;-69
2023/04/09 12:47:09;;;;;;;2.83;2.60;;;20.40;37.20;;;;;;5047617;28;20206;-72
2023/04/09 12:49:36;;;;;;;2.87;2.67;;;20.70;37.30;;;;;;5041972;28;20213;-71
2023/04/09 12:52:03;;;;;;;3.47;3.17;;;20.90;35.40;;;;;;5050481;28;20202;-71